createdAt,value
2022-10-22T00:01:48.960Z,22.85
2022-10-22T00:04:15.455Z,22.83
2022-10-22T00:06:44.888Z,22.82
2022-10-22T00:09:13.096Z,22.80
2022-10-22T00:11:39.919Z,22.80
2022-10-22T00:14:06.732Z,22.77
2022-10-22T00:16:33.232Z,22.76
2022-10-22T00:18:59.711Z,22.75
2022-10-22T00:21:29.015Z,22.74
2022-10-22T00:23:55.882Z,22.72
2022-10-22T00:26:22.827Z,22.71
2022-10-22T00:28:49.291Z,22.70
2022-10-22T00:31:15.829Z,22.69
2022-10-22T00:33:42.291Z,22.68
2022-10-22T00:36:09.159Z,22.67
2022-10-22T00:38:35.663Z,22.67
2022-10-22T00:43:34.107Z,22.63
2022-10-22T00:46:00.553Z,22.62
2022-10-22T00:48:33.353Z,22.62
2022-10-22T00:51:02.931Z,22.60
2022-10-22T00:53:36.759Z,22.59
2022-10-22T00:56:03.631Z,22.58
2022-10-22T00:58:34.957Z,22.57
2022-10-22T01:01:02.599Z,22.56
2022-10-22T01:03:29.157Z,22.55
2022-10-22T01:06:00.796Z,22.53
2022-10-22T01:08:36.925Z,22.53
2022-10-22T01:11:26.199Z,22.51
2022-10-22T01:14:11.047Z,22.51
2022-10-22T01:16:54.819Z,22.49
2022-10-22T01:20:01.415Z,22.49
2022-10-22T01:22:49.681Z,22.47
2022-10-22T01:25:45.097Z,22.46
2022-10-22T01:28:54.339Z,22.45
2022-10-22T01:31:23.665Z,22.45
2022-10-22T01:33:53.685Z,22.43
2022-10-22T01:36:21.434Z,22.43
2022-10-22T01:38:51.313Z,22.41
2022-10-22T01:41:18.858Z,22.41
2022-10-22T01:43:45.315Z,22.40
2022-10-22T01:46:12.856Z,22.39
2022-10-22T01:49:23.580Z,22.39
2022-10-22T01:51:58.867Z,22.38
2022-10-22T01:54:45.441Z,22.38
2022-10-22T01:57:17.905Z,22.37
2022-10-22T02:00:09.755Z,22.36
2022-10-22T02:02:55.041Z,22.34
2022-10-22T02:05:29.057Z,22.34
2022-10-22T02:08:06.168Z,22.32
2022-10-22T02:10:32.737Z,22.32
2022-10-22T02:13:01.271Z,22.31
2022-10-22T02:15:31.322Z,22.30
2022-10-22T02:17:59.284Z,22.30
2022-10-22T02:20:35.361Z,22.29
2022-10-22T02:23:03.339Z,22.29
2022-10-22T02:25:33.891Z,22.28
2022-10-22T02:28:27.224Z,22.27
2022-10-22T02:31:00.310Z,22.27
2022-10-22T02:33:31.664Z,22.26
2022-10-22T02:35:59.449Z,22.24
2022-10-22T02:38:28.214Z,22.24
2022-10-22T02:40:55.016Z,22.23
2022-10-22T02:43:24.672Z,22.22
2022-10-22T02:45:51.648Z,22.22
2022-10-22T02:48:18.202Z,22.20
2022-10-22T02:50:44.727Z,22.19
2022-10-22T02:53:11.204Z,22.20
2022-10-22T02:55:37.672Z,22.20
2022-10-22T02:58:04.149Z,22.19
2022-10-22T03:00:30.750Z,22.18
2022-10-22T03:02:57.244Z,22.18
2022-10-22T03:05:23.711Z,22.17
2022-10-22T03:07:50.144Z,22.16
2022-10-22T03:10:16.915Z,22.16
2022-10-22T03:12:43.382Z,22.16
2022-10-22T03:15:10.253Z,22.16
2022-10-22T03:17:36.733Z,22.14
2022-10-22T03:20:03.887Z,22.15
2022-10-22T03:22:34.037Z,22.13
2022-10-22T03:25:04.192Z,22.13
2022-10-22T03:27:30.765Z,22.12
2022-10-22T03:29:58.769Z,22.11
2022-10-22T03:32:25.283Z,22.11
2022-10-22T03:34:51.787Z,22.11
2022-10-22T03:37:18.874Z,22.11
2022-10-22T03:39:45.864Z,22.10
2022-10-22T03:42:13.548Z,22.08
2022-10-22T03:44:40.609Z,22.09
2022-10-22T03:47:07.180Z,22.08
2022-10-22T03:49:33.676Z,22.09
2022-10-22T03:52:07.925Z,22.07
2022-10-22T03:54:35.940Z,22.08
2022-10-22T03:57:03.428Z,22.07
2022-10-22T03:59:34.841Z,22.06
2022-10-22T04:02:01.300Z,22.06
2022-10-22T04:04:27.738Z,22.05
2022-10-22T04:06:54.168Z,22.04
2022-10-22T04:09:20.644Z,22.05
2022-10-22T04:11:47.104Z,22.04
2022-10-22T04:14:13.628Z,22.03
2022-10-22T04:16:42.213Z,22.03
2022-10-22T04:19:09.033Z,22.03
2022-10-22T04:21:35.740Z,22.02
2022-10-22T04:24:02.188Z,22.02
2022-10-22T04:26:28.635Z,22.01
2022-10-22T04:28:55.085Z,22.01
2022-10-22T04:31:24.217Z,22.01
2022-10-22T04:33:58.629Z,22.00
2022-10-22T04:36:26.860Z,22.01
2022-10-22T04:38:56.184Z,22.00
2022-10-22T04:41:28.644Z,21.99
2022-10-22T04:43:56.161Z,21.98
2022-10-22T04:46:23.528Z,21.97
2022-10-22T04:48:51.563Z,21.98
2022-10-22T04:51:19.477Z,21.98
2022-10-22T04:53:46.908Z,21.97
2022-10-22T04:56:13.284Z,21.96
2022-10-22T04:58:40.948Z,21.95
2022-10-22T05:01:25.831Z,21.95
2022-10-22T05:03:53.829Z,21.95
2022-10-22T05:06:21.075Z,21.95
2022-10-22T05:08:48.565Z,21.94
2022-10-22T05:11:19.406Z,21.94
2022-10-22T05:13:46.294Z,21.93
2022-10-22T05:16:13.679Z,21.94
2022-10-22T05:18:41.122Z,21.93
2022-10-22T05:21:13.232Z,21.93
2022-10-22T05:23:40.066Z,21.92
2022-10-22T05:26:08.177Z,21.93
2022-10-22T05:28:36.107Z,21.92
2022-10-22T05:31:03.486Z,21.91
2022-10-22T05:33:31.236Z,21.91
2022-10-22T05:35:58.190Z,21.91
2022-10-22T05:38:25.060Z,21.91
2022-10-22T05:41:10.248Z,21.91
2022-10-22T05:43:37.872Z,21.89
2022-10-22T05:46:09.397Z,21.90
2022-10-22T05:48:36.578Z,21.89
2022-10-22T05:51:08.956Z,21.89
2022-10-22T05:53:37.016Z,21.89
2022-10-22T05:56:06.160Z,21.88
2022-10-22T05:58:32.991Z,21.88
2022-10-22T06:01:09.273Z,21.87
2022-10-22T06:03:35.817Z,21.86
2022-10-22T06:06:07.749Z,21.87
2022-10-22T06:08:34.251Z,21.85
2022-10-22T06:11:01.003Z,21.86
2022-10-22T06:13:27.469Z,21.86
2022-10-22T06:15:53.938Z,21.85
2022-10-22T06:18:20.439Z,21.85
2022-10-22T06:20:47.681Z,21.85
2022-10-22T06:23:15.300Z,21.85
2022-10-22T06:25:43.480Z,21.86
2022-10-22T06:28:10.252Z,21.84
2022-10-22T06:30:41.806Z,21.84
2022-10-22T06:33:10.796Z,21.85
2022-10-22T06:35:37.244Z,21.84
2022-10-22T06:38:03.703Z,21.82
2022-10-22T06:40:30.401Z,21.83
2022-10-22T06:43:01.828Z,21.83
2022-10-22T06:45:28.298Z,21.83
2022-10-22T06:47:55.611Z,21.82
2022-10-22T06:50:22.059Z,21.82
2022-10-22T06:52:48.509Z,21.81
2022-10-22T06:55:14.944Z,21.80
2022-10-22T06:57:41.752Z,21.80
2022-10-22T07:00:09.126Z,21.80
2022-10-22T07:02:35.670Z,21.79
2022-10-22T07:05:02.145Z,21.81
2022-10-22T07:07:28.634Z,21.81
2022-10-22T07:09:55.093Z,21.81
2022-10-22T07:12:21.625Z,21.80
2022-10-22T07:14:49.532Z,21.80
2022-10-22T07:17:16.048Z,21.79
2022-10-22T07:19:42.537Z,21.77
2022-10-22T07:22:09.036Z,21.77
2022-10-22T07:24:35.548Z,21.77
2022-10-22T07:27:01.993Z,21.77
2022-10-22T07:29:28.453Z,21.77
2022-10-22T07:31:54.941Z,21.77
2022-10-22T07:34:21.740Z,21.77
2022-10-22T07:36:48.233Z,21.77
2022-10-22T07:39:14.677Z,21.76
2022-10-22T07:41:41.157Z,21.76
2022-10-22T07:44:07.613Z,21.75
2022-10-22T07:46:35.275Z,21.75
2022-10-22T07:49:01.801Z,21.75
2022-10-22T07:51:28.319Z,21.76
2022-10-22T07:53:54.788Z,21.74
2022-10-22T07:56:21.283Z,21.73
2022-10-22T07:58:47.719Z,21.74
2022-10-22T08:01:14.218Z,21.74
2022-10-22T08:03:40.704Z,21.73
2022-10-22T08:06:07.595Z,21.73
2022-10-22T08:08:34.782Z,21.73
2022-10-22T08:11:02.055Z,21.72
2022-10-22T08:13:30.604Z,21.73
2022-10-22T08:16:01.299Z,21.73
2022-10-22T08:18:28.565Z,21.73
2022-10-22T08:20:55.303Z,21.73
2022-10-22T08:23:25.943Z,21.71
2022-10-22T08:25:55.008Z,21.71
2022-10-22T08:28:22.384Z,21.71
2022-10-22T08:30:49.310Z,21.71
2022-10-22T08:33:15.897Z,21.72
2022-10-22T08:35:42.399Z,21.70
2022-10-22T08:38:08.948Z,21.71
2022-10-22T08:40:39.990Z,21.70
2022-10-22T08:43:30.584Z,21.69
2022-10-22T08:46:20.566Z,21.70
2022-10-22T08:48:51.944Z,21.70
2022-10-22T08:51:22.492Z,21.70
2022-10-22T08:54:12.153Z,21.70
2022-10-22T08:56:43.476Z,21.69
2022-10-22T08:59:34.868Z,21.68
2022-10-22T09:02:02.932Z,21.68
2022-10-22T09:04:46.050Z,21.68
2022-10-22T09:07:12.534Z,21.69
2022-10-22T09:09:43.358Z,21.67
2022-10-22T09:12:19.440Z,21.67
2022-10-22T09:14:47.135Z,21.67
2022-10-22T09:17:36.700Z,21.67
2022-10-22T09:20:32.761Z,21.68
2022-10-22T09:23:20.292Z,21.70
2022-10-22T09:25:49.103Z,21.71
2022-10-22T09:28:16.029Z,21.72
2022-10-22T09:30:43.365Z,21.73
2022-10-22T09:33:09.752Z,21.73
2022-10-22T09:35:46.274Z,21.74
2022-10-22T09:38:15.896Z,21.73
2022-10-22T09:40:49.769Z,21.74
2022-10-22T09:43:16.534Z,21.74
2022-10-22T09:45:44.384Z,21.74
2022-10-22T09:48:19.493Z,21.75
2022-10-22T09:50:49.425Z,21.75
2022-10-22T09:53:39.216Z,21.75
2022-10-22T09:56:18.609Z,21.76
2022-10-22T09:58:49.349Z,21.75
2022-10-22T10:01:28.588Z,21.75
2022-10-22T10:04:04.467Z,21.75
2022-10-22T10:06:35.288Z,21.76
2022-10-22T10:09:03.243Z,21.76
2022-10-22T10:11:34.832Z,21.75
2022-10-22T10:14:21.452Z,21.76
2022-10-22T10:17:05.233Z,21.76
2022-10-22T10:19:53.392Z,21.76
2022-10-22T10:22:52.987Z,21.76
2022-10-22T10:25:46.767Z,21.76
2022-10-22T10:28:36.927Z,21.77
2022-10-22T10:31:12.569Z,21.77
2022-10-22T10:34:03.727Z,21.77
2022-10-22T10:36:44.868Z,21.76
2022-10-22T10:39:24.145Z,21.76
2022-10-22T10:42:03.573Z,21.76
2022-10-22T10:44:50.784Z,21.76
2022-10-22T10:47:38.908Z,21.77
2022-10-22T10:50:20.749Z,21.77
2022-10-22T10:53:17.725Z,21.78
2022-10-22T10:56:10.382Z,21.80
2022-10-22T10:58:51.436Z,21.78
2022-10-22T11:01:56.298Z,21.79
2022-10-22T11:04:47.165Z,21.79
2022-10-22T11:07:30.240Z,21.79
2022-10-22T11:10:46.479Z,21.79
2022-10-22T11:13:26.844Z,21.80
2022-10-22T11:16:03.095Z,21.80
2022-10-22T11:18:38.856Z,21.82
2022-10-22T11:21:19.369Z,21.82
2022-10-22T11:23:55.621Z,21.84
2022-10-22T11:26:48.825Z,21.85
2022-10-22T11:29:22.568Z,21.85
2022-10-22T11:31:51.231Z,21.86
2022-10-22T11:34:34.778Z,21.86
2022-10-22T11:37:04.091Z,21.85
2022-10-22T11:39:34.054Z,21.86
2022-10-22T11:42:04.376Z,21.85
2022-10-22T11:44:32.527Z,21.84
2022-10-22T11:47:15.552Z,21.83
2022-10-22T11:49:43.632Z,21.83
2022-10-22T11:52:28.154Z,21.84
2022-10-22T11:54:57.775Z,21.83
2022-10-22T11:57:36.405Z,21.83
2022-10-22T12:00:29.685Z,21.82
2022-10-22T12:03:16.854Z,21.81
2022-10-22T12:05:44.929Z,21.82
2022-10-22T12:08:25.811Z,21.81
2022-10-22T12:11:01.006Z,21.81
2022-10-22T12:13:33.845Z,21.81
2022-10-22T12:16:04.058Z,21.83
2022-10-22T12:18:42.636Z,21.83
2022-10-22T12:21:14.462Z,21.84
2022-10-22T12:23:41.686Z,21.86
2022-10-22T12:26:27.199Z,21.86
2022-10-22T12:29:00.587Z,21.86
2022-10-22T12:31:28.027Z,21.89
2022-10-22T12:33:59.109Z,21.88
2022-10-22T12:36:30.123Z,21.89
2022-10-22T12:39:00.606Z,21.90
2022-10-22T12:41:32.219Z,21.91
2022-10-22T12:44:02.797Z,21.91
2022-10-22T12:46:32.108Z,21.92
2022-10-22T12:49:01.413Z,21.93
2022-10-22T12:51:28.787Z,21.94
2022-10-22T12:53:56.788Z,21.94
2022-10-22T12:56:27.743Z,21.95
2022-10-22T12:59:00.112Z,21.96
2022-10-22T13:01:34.538Z,21.98
2022-10-22T13:04:18.612Z,21.99
2022-10-22T13:06:51.710Z,22.00
2022-10-22T13:09:23.729Z,22.00
2022-10-22T13:11:58.249Z,22.00
2022-10-22T13:14:30.523Z,22.01
2022-10-22T13:17:20.722Z,22.01
2022-10-22T13:19:53.317Z,22.02
2022-10-22T13:22:31.917Z,22.02
2022-10-22T13:25:15.953Z,22.03
2022-10-22T13:27:52.144Z,22.04
2022-10-22T13:30:30.588Z,22.02
2022-10-22T13:33:03.158Z,22.03
2022-10-22T13:35:32.982Z,22.03
2022-10-22T13:38:00.352Z,22.04
2022-10-22T13:40:26.804Z,22.04
2022-10-22T13:42:53.588Z,22.05
2022-10-22T13:45:20.180Z,22.05
2022-10-22T13:47:51.978Z,22.05
2022-10-22T13:50:20.598Z,22.05
2022-10-22T13:52:56.812Z,22.05
2022-10-22T13:55:29.101Z,22.05
2022-10-22T13:58:06.531Z,22.05
2022-10-22T14:00:33.142Z,22.06
2022-10-22T14:03:00.216Z,22.05
2022-10-22T14:05:26.741Z,22.05
2022-10-22T14:07:53.581Z,22.05
2022-10-22T14:10:23.719Z,22.04
2022-10-22T14:12:53.630Z,22.05
2022-10-22T14:15:24.793Z,22.04
2022-10-22T14:17:57.552Z,22.04
2022-10-22T14:20:27.876Z,22.05
2022-10-22T14:22:55.110Z,22.06
2022-10-22T14:25:26.004Z,22.06
2022-10-22T14:27:52.758Z,22.05
2022-10-22T14:30:24.679Z,22.06
2022-10-22T14:32:51.797Z,22.05
2022-10-22T14:35:21.643Z,22.06
2022-10-22T14:37:48.392Z,22.07
2022-10-22T14:40:18.143Z,22.05
2022-10-22T14:42:46.689Z,22.06
2022-10-22T14:45:17.461Z,22.05
2022-10-22T14:47:44.513Z,22.05
2022-10-22T14:50:11.288Z,22.05
2022-10-22T14:52:37.784Z,22.04
2022-10-22T14:55:04.824Z,22.04
2022-10-22T14:57:31.319Z,22.04
2022-10-22T14:59:57.763Z,22.05
2022-10-22T15:02:24.317Z,22.05
2022-10-22T15:04:50.824Z,22.04
2022-10-22T15:07:18.995Z,22.04
2022-10-22T15:09:45.815Z,22.03
2022-10-22T15:12:12.279Z,22.04
2022-10-22T15:14:38.776Z,22.03
2022-10-22T15:17:05.248Z,22.02
2022-10-22T15:19:31.755Z,22.03
2022-10-22T15:21:58.242Z,22.02
2022-10-22T15:24:24.929Z,22.02
2022-10-22T15:26:53.331Z,22.02
2022-10-22T15:29:19.983Z,22.02
2022-10-22T15:31:49.770Z,22.02
2022-10-22T15:34:26.280Z,22.01
2022-10-22T15:36:55.361Z,22.00
2022-10-22T15:39:22.709Z,22.00
2022-10-22T15:41:50.284Z,22.00
2022-10-22T15:44:19.616Z,22.00
2022-10-22T15:46:46.377Z,21.99
2022-10-22T15:49:13.814Z,21.99
2022-10-22T15:51:40.403Z,21.99
2022-10-22T15:54:10.133Z,21.98
2022-10-22T15:56:36.813Z,21.97
2022-10-22T15:59:06.522Z,21.97
2022-10-22T16:01:34.770Z,21.97
2022-10-22T16:04:04.590Z,21.96
2022-10-22T16:06:40.153Z,21.97
2022-10-22T16:09:10.280Z,21.96
2022-10-22T16:11:38.167Z,21.96
2022-10-22T16:14:05.546Z,21.96
2022-10-22T16:16:32.945Z,21.95
2022-10-22T16:18:59.776Z,21.95
2022-10-22T16:21:26.663Z,21.93
2022-10-22T16:23:53.975Z,21.94
2022-10-22T16:26:20.765Z,21.93
2022-10-22T16:28:48.171Z,21.93
2022-10-22T16:31:16.605Z,21.93
2022-10-22T16:33:47.768Z,21.93
2022-10-22T16:36:18.842Z,21.92
2022-10-22T16:38:46.274Z,21.92
2022-10-22T16:41:14.443Z,21.93
2022-10-22T16:43:48.307Z,21.92
2022-10-22T16:46:20.026Z,21.92
2022-10-22T16:48:48.340Z,21.91
2022-10-22T16:51:16.845Z,21.91
2022-10-22T16:53:43.739Z,21.91
2022-10-22T16:56:14.751Z,21.91
2022-10-22T16:58:56.249Z,21.91
2022-10-22T17:01:26.447Z,21.92
2022-10-22T17:03:54.751Z,21.90
2022-10-22T17:06:23.752Z,21.90
2022-10-22T17:08:50.418Z,21.90
2022-10-22T17:11:20.300Z,21.90
2022-10-22T17:13:49.012Z,21.90
2022-10-22T17:16:18.517Z,21.89
2022-10-22T17:21:18.667Z,21.89
2022-10-22T17:23:46.133Z,21.86
2022-10-22T17:26:21.595Z,21.87
2022-10-22T17:28:48.981Z,21.87
2022-10-22T17:31:29.237Z,21.87
2022-10-22T17:33:57.200Z,21.86
2022-10-22T17:36:25.524Z,21.86
2022-10-22T17:38:57.496Z,21.85
2022-10-22T17:41:30.509Z,21.86
2022-10-22T17:44:01.303Z,21.86
2022-10-22T17:46:29.585Z,21.86
2022-10-22T17:49:03.176Z,21.86
2022-10-22T17:51:30.988Z,21.86
2022-10-22T17:53:57.909Z,21.87
2022-10-22T17:56:27.277Z,21.87
2022-10-22T17:58:54.088Z,21.86
2022-10-22T18:01:43.330Z,21.87
2022-10-22T18:04:13.151Z,21.85
2022-10-22T18:06:40.222Z,21.85
2022-10-22T18:09:08.448Z,21.85
2022-10-22T18:11:36.966Z,21.84
2022-10-22T18:14:04.604Z,21.87
2022-10-22T18:16:31.303Z,21.86
2022-10-22T18:18:57.816Z,21.85
2022-10-22T18:21:26.876Z,21.84
2022-10-22T18:23:53.664Z,21.83
2022-10-22T18:26:22.934Z,21.82
2022-10-22T18:28:52.465Z,21.81
2022-10-22T18:31:21.201Z,21.81
2022-10-22T18:33:47.937Z,21.80
2022-10-22T18:36:20.351Z,21.81
2022-10-22T18:38:55.699Z,21.80
2022-10-22T18:41:22.718Z,21.79
2022-10-22T18:43:57.979Z,21.77
2022-10-22T18:46:25.901Z,21.76
2022-10-22T18:48:53.576Z,21.75
2022-10-22T18:51:20.405Z,21.75
2022-10-22T18:53:59.212Z,21.78
2022-10-22T18:56:38.838Z,21.82
2022-10-22T18:59:05.269Z,21.86
2022-10-22T19:01:34.026Z,21.91
2022-10-22T19:04:01.308Z,21.95
2022-10-22T19:06:34.514Z,22.01
2022-10-22T19:09:04.334Z,22.04
2022-10-22T19:11:31.237Z,22.08
2022-10-22T19:13:58.126Z,22.12
2022-10-22T19:16:24.652Z,22.15
2022-10-22T19:19:02.038Z,22.19
2022-10-22T19:21:28.649Z,22.22
2022-10-22T19:23:57.195Z,22.26
2022-10-22T19:26:26.340Z,22.30
2022-10-22T19:28:54.673Z,22.33
2022-10-22T19:31:22.779Z,22.34
2022-10-22T19:33:50.389Z,22.36
2022-10-22T19:36:19.450Z,22.38
2022-10-22T19:38:48.628Z,22.38
2022-10-22T19:41:18.349Z,22.39
2022-10-22T19:43:47.904Z,22.40
2022-10-22T19:46:14.509Z,22.39
2022-10-22T19:48:41.021Z,22.40
2022-10-22T19:51:10.082Z,22.39
2022-10-22T19:53:38.698Z,22.39
2022-10-22T19:56:07.238Z,22.39
2022-10-22T19:58:34.648Z,22.39
2022-10-22T20:01:09.693Z,22.39
2022-10-22T20:03:38.134Z,22.39
2022-10-22T20:06:06.478Z,22.38
2022-10-22T20:08:35.982Z,22.39
2022-10-22T20:11:02.752Z,22.39
2022-10-22T20:13:29.475Z,22.38
2022-10-22T20:15:56.713Z,22.39
2022-10-22T20:18:23.393Z,22.39
2022-10-22T20:20:50.214Z,22.40
2022-10-22T20:23:16.811Z,22.40
2022-10-22T20:25:46.173Z,22.40
2022-10-22T20:28:14.988Z,22.40
2022-10-22T20:30:45.736Z,22.40
2022-10-22T20:33:13.219Z,22.41
2022-10-22T20:35:39.715Z,22.41
2022-10-22T20:38:07.887Z,22.41
2022-10-22T20:40:34.602Z,22.41
2022-10-22T20:43:01.905Z,22.41
2022-10-22T20:45:28.751Z,22.42
2022-10-22T20:48:02.568Z,22.41
2022-10-22T20:50:31.995Z,22.42
2022-10-22T20:52:59.027Z,22.42
2022-10-22T20:55:25.833Z,22.42
2022-10-22T20:57:52.332Z,22.42
2022-10-22T21:00:18.911Z,22.42
2022-10-22T21:02:45.432Z,22.44
2022-10-22T21:05:11.939Z,22.45
2022-10-22T21:07:38.403Z,22.44
2022-10-22T21:10:05.399Z,22.47
2022-10-22T21:12:31.864Z,22.48
2022-10-22T21:14:58.304Z,22.51
2022-10-22T21:17:24.773Z,22.55
2022-10-22T21:19:51.233Z,22.59
2022-10-22T21:22:17.700Z,22.63
2022-10-22T21:24:44.127Z,22.68
2022-10-22T21:27:10.632Z,22.72
2022-10-22T21:29:37.090Z,22.77
2022-10-22T21:32:03.772Z,22.81
2022-10-22T21:34:31.204Z,22.86
2022-10-22T21:36:59.729Z,22.91
2022-10-22T21:39:26.185Z,22.96
2022-10-22T21:41:52.690Z,22.99
2022-10-22T21:44:19.204Z,23.04
2022-10-22T21:46:45.711Z,23.09
2022-10-22T21:49:12.212Z,23.13
2022-10-22T21:51:38.683Z,23.18
2022-10-22T21:54:05.545Z,23.22
2022-10-22T21:56:34.833Z,23.26
2022-10-22T21:59:03.657Z,23.31
2022-10-22T22:01:30.306Z,23.35
2022-10-22T22:03:56.920Z,23.39
2022-10-22T22:06:27.301Z,23.43
2022-10-22T22:08:56.084Z,23.37
2022-10-22T22:11:25.288Z,23.29
2022-10-22T22:13:53.594Z,23.19
2022-10-22T22:16:27.209Z,23.09
2022-10-22T22:18:56.462Z,23.01
2022-10-22T22:21:22.946Z,22.91
2022-10-22T22:23:50.399Z,22.84
2022-10-22T22:26:22.054Z,22.78
2022-10-22T22:28:50.476Z,22.73
2022-10-22T22:31:24.867Z,22.71
2022-10-22T22:33:52.292Z,22.69
2022-10-22T22:36:18.765Z,22.71
2022-10-22T22:38:45.244Z,22.73
2022-10-22T22:41:11.728Z,22.76
2022-10-22T22:43:38.196Z,22.79
2022-10-22T22:46:10.732Z,22.83
2022-10-22T22:48:37.168Z,22.84
2022-10-22T22:51:05.689Z,22.86
2022-10-22T22:53:33.828Z,22.88
2022-10-22T22:56:07.472Z,22.88
2022-10-22T22:58:34.716Z,22.89
2022-10-22T23:01:21.220Z,22.89
2022-10-22T23:03:53.103Z,22.90
2022-10-22T23:06:19.732Z,22.89
2022-10-22T23:08:52.168Z,22.89
2022-10-22T23:11:19.925Z,22.89
2022-10-22T23:13:46.888Z,22.90
2022-10-22T23:16:17.954Z,22.90
2022-10-22T23:18:45.964Z,22.88
2022-10-22T23:21:18.502Z,22.89
2022-10-22T23:23:46.993Z,22.87
2022-10-22T23:26:15.109Z,22.86
2022-10-22T23:28:41.587Z,22.86
2022-10-22T23:31:10.454Z,22.84
2022-10-22T23:33:36.912Z,22.83
2022-10-22T23:36:06.940Z,22.81
2022-10-22T23:38:35.259Z,22.81
2022-10-22T23:41:02.206Z,22.79
2022-10-22T23:43:29.597Z,22.79
2022-10-22T23:45:56.161Z,22.77
2022-10-22T23:48:22.980Z,22.76
2022-10-22T23:50:49.747Z,22.75
2022-10-22T23:53:16.679Z,22.73
2022-10-22T23:55:44.079Z,22.72
2022-10-22T23:58:10.943Z,22.71
